TimeCDT,TemperatureF,Dew PointF,Humidity,Sea Level PressureIn,VisibilityMPH,Wind Direction,Wind SpeedMPH,Gust SpeedMPH,PrecipitationIn,Events,Conditions,WindDirDegrees,DateUTC
12:15 AM,55.0,52.2,90,30.08,10.0,Calm,Calm,-,N/A,,Clear,0,2013-07-25 05:15:00
12:35 AM,54.1,52.2,93,30.08,10.0,Calm,Calm,-,N/A,,Clear,0,2013-07-25 05:35:00
12:55 AM,54.1,52.3,94,30.08,10.0,Calm,Calm,-,N/A,,Clear,0,2013-07-25 05:55:00
1:15 AM,53.6,51.6,93,30.07,10.0,Calm,Calm,-,N/A,,Clear,0,2013-07-25 06:15:00
1:35 AM,53.8,51.8,93,30.07,10.0,Calm,Calm,-,N/A,,Clear,0,2013-07-25 06:35:00
1:55 AM,53.1,51.3,94,30.06,10.0,Calm,Calm,-,N/A,,Clear,0,2013-07-25 06:55:00
2:15 AM,51.6,49.8,94,30.07,10.0,Calm,Calm,-,N/A,,Clear,0,2013-07-25 07:15:00
2:35 AM,51.8,50.0,94,30.06,10.0,Calm,Calm,-,N/A,,Clear,0,2013-07-25 07:35:00
2:55 AM,52.0,50.4,94,30.06,10.0,Calm,Calm,-,N/A,,Clear,0,2013-07-25 07:55:00
3:15 AM,50.7,49.1,94,30.07,10.0,Calm,Calm,-,N/A,,Clear,0,2013-07-25 08:15:00
3:35 AM,50.4,48.7,94,30.07,10.0,Calm,Calm,-,N/A,,Clear,0,2013-07-25 08:35:00
3:55 AM,51.1,49.5,94,30.08,10.0,Calm,Calm,-,N/A,,Clear,0,2013-07-25 08:55:00
4:15 AM,50.2,48.6,94,30.08,10.0,Calm,Calm,-,N/A,,Clear,0,2013-07-25 09:15:00
4:35 AM,49.5,48.2,95,30.09,10.0,Calm,Calm,-,N/A,,Clear,0,2013-07-25 09:35:00
4:55 AM,49.6,48.2,95,30.09,10.0,Calm,Calm,-,N/A,,Clear,0,2013-07-25 09:55:00
5:15 AM,49.6,48.2,95,30.09,10.0,Calm,Calm,-,N/A,,Clear,0,2013-07-25 10:15:00
5:35 AM,49.1,47.7,95,30.09,10.0,Calm,Calm,-,N/A,,Clear,0,2013-07-25 10:35:00
5:55 AM,49.1,47.7,95,30.10,10.0,Calm,Calm,-,N/A,,Clear,0,2013-07-25 10:55:00
6:35 AM,51.4,49.6,94,30.11,10.0,Calm,Calm,-,N/A,,Clear,0,2013-07-25 11:35:00
6:55 AM,53.6,51.6,93,30.11,10.0,Calm,Calm,-,N/A,,Clear,0,2013-07-25 11:55:00
7:15 AM,56.1,52.9,89,30.12,10.0,Calm,Calm,-,N/A,,Clear,0,2013-07-25 12:15:00
7:35 AM,57.9,54.0,87,30.11,10.0,Calm,Calm,-,N/A,,Clear,0,2013-07-25 12:35:00
7:55 AM,59.7,54.0,81,30.11,10.0,Calm,Calm,-,N/A,,Clear,0,2013-07-25 12:55:00
8:15 AM,61.3,54.5,78,30.11,10.0,Calm,Calm,-,N/A,,Clear,0,2013-07-25 13:15:00
8:35 AM,63.1,54.7,74,30.10,10.0,Calm,Calm,-,N/A,,Clear,0,2013-07-25 13:35:00
8:55 AM,64.6,54.7,70,30.11,10.0,South,4.6,-,N/A,,Clear,180,2013-07-25 13:55:00
9:15 AM,66.6,54.0,64,30.12,10.0,SSW,5.8,-,N/A,,Clear,200,2013-07-25 14:15:00
9:35 AM,68.0,54.7,62,30.11,10.0,SSW,4.6,-,N/A,,Clear,210,2013-07-25 14:35:00
9:55 AM,69.4,53.8,57,30.12,10.0,SW,6.9,-,N/A,,Clear,230,2013-07-25 14:55:00
10:15 AM,70.7,54.5,56,30.11,10.0,South,4.6,-,N/A,,Clear,190,2013-07-25 15:15:00
10:35 AM,70.9,54.1,55,30.12,10.0,SSW,4.6,-,N/A,,Clear,210,2013-07-25 15:35:00
10:55 AM,71.8,53.6,53,30.12,10.0,South,4.6,-,N/A,,Clear,190,2013-07-25 15:55:00
11:15 AM,73.0,55.0,53,30.12,10.0,SSW,5.8,-,N/A,,Clear,210,2013-07-25 16:15:00
11:35 AM,73.9,55.6,53,30.12,10.0,SW,3.5,-,N/A,,Clear,220,2013-07-25 16:35:00
11:55 AM,74.3,53.2,48,30.12,10.0,Calm,Calm,-,N/A,,Clear,0,2013-07-25 16:55:00
12:15 PM,74.7,54.0,48,30.12,10.0,West,6.9,-,N/A,,Clear,260,2013-07-25 17:15:00
12:35 PM,75.2,54.0,47,30.12,10.0,WSW,4.6,-,N/A,,Clear,250,2013-07-25 17:35:00
12:55 PM,76.3,52.3,43,30.12,10.0,West,4.6,-,N/A,,Clear,280,2013-07-25 17:55:00
1:15 PM,76.6,54.0,45,30.12,10.0,WSW,4.6,-,N/A,,Scattered Clouds,240,2013-07-25 18:15:00
1:35 PM,77.0,55.0,47,30.11,10.0,SSW,8.1,-,N/A,,Clear,200,2013-07-25 18:35:00
1:55 PM,76.8,54.9,46,30.11,10.0,SSW,6.9,-,N/A,,Scattered Clouds,210,2013-07-25 18:55:00
2:15 PM,77.4,55.9,47,30.09,10.0,SSW,4.6,-,N/A,,Scattered Clouds,200,2013-07-25 19:15:00
2:35 PM,75.7,55.0,49,30.09,10.0,Calm,Calm,-,N/A,,Scattered Clouds,0,2013-07-25 19:35:00
2:55 PM,76.1,55.9,50,30.08,10.0,South,4.6,-,N/A,,Scattered Clouds,190,2013-07-25 19:55:00
3:15 PM,77.9,56.8,48,30.08,10.0,SSW,8.1,-,N/A,,Scattered Clouds,210,2013-07-25 20:15:00
3:35 PM,77.9,57.6,49,30.07,10.0,SSW,6.9,-,N/A,,Scattered Clouds,210,2013-07-25 20:35:00
3:55 PM,78.1,56.8,48,30.06,10.0,South,8.1,-,N/A,,Scattered Clouds,190,2013-07-25 20:55:00
4:15 PM,78.3,58.1,50,30.07,10.0,SW,9.2,-,N/A,,Scattered Clouds,220,2013-07-25 21:15:00
4:35 PM,77.9,57.0,48,30.06,10.0,South,5.8,-,N/A,,Clear,180,2013-07-25 21:35:00
4:55 PM,77.0,58.3,52,30.06,10.0,South,4.6,-,N/A,,Clear,190,2013-07-25 21:55:00
5:15 PM,77.4,57.2,50,30.06,10.0,South,6.9,-,N/A,,Clear,190,2013-07-25 22:15:00
5:35 PM,77.9,57.6,49,30.06,10.0,South,9.2,-,N/A,,Clear,190,2013-07-25 22:35:00
5:55 PM,77.0,57.2,50,30.06,10.0,South,6.9,-,N/A,,Clear,190,2013-07-25 22:55:00
6:15 PM,76.6,57.9,52,30.06,10.0,SSW,6.9,-,N/A,,Clear,200,2013-07-25 23:15:00
6:35 PM,75.7,58.8,56,30.06,10.0,SSW,4.6,-,N/A,,Clear,200,2013-07-25 23:35:00
6:55 PM,75.2,58.8,57,30.06,10.0,SSW,4.6,-,N/A,,Clear,210,2013-07-25 23:55:00
7:15 PM,73.2,60.1,63,30.06,10.0,SSW,4.6,-,N/A,,Clear,200,2013-07-26 00:15:00
7:35 PM,71.2,61.3,71,30.05,10.0,South,4.6,-,N/A,,Clear,180,2013-07-26 00:35:00
7:55 PM,69.8,61.2,74,30.05,10.0,South,4.6,-,N/A,,Clear,180,2013-07-26 00:55:00
8:15 PM,68.4,61.0,77,30.05,10.0,South,5.8,-,N/A,,Clear,190,2013-07-26 01:15:00
8:35 PM,67.3,61.0,80,30.06,10.0,South,4.6,-,N/A,,Clear,180,2013-07-26 01:35:00
8:55 PM,66.7,60.4,80,30.06,10.0,South,4.6,-,N/A,,Clear,190,2013-07-26 01:55:00
9:15 PM,65.8,60.8,84,30.07,10.0,South,4.6,-,N/A,,Clear,190,2013-07-26 02:15:00
9:35 PM,64.9,60.8,86,30.07,10.0,South,4.6,-,N/A,,Clear,180,2013-07-26 02:35:00
9:55 PM,64.0,60.6,89,30.07,10.0,South,4.6,-,N/A,,Clear,190,2013-07-26 02:55:00
10:15 PM,63.9,60.4,89,30.07,10.0,South,4.6,-,N/A,,Clear,180,2013-07-26 03:15:00
10:35 PM,64.0,60.4,88,30.07,10.0,SSE,4.6,-,N/A,,Clear,160,2013-07-26 03:35:00
10:55 PM,64.4,60.3,86,30.07,10.0,South,4.6,-,N/A,,Clear,190,2013-07-26 03:55:00
11:15 PM,64.0,60.3,87,30.07,10.0,Calm,Calm,-,N/A,,Clear,0,2013-07-26 04:15:00
11:35 PM,63.9,60.8,90,30.06,10.0,South,3.5,-,N/A,,Clear,180,2013-07-26 04:35:00
11:55 PM,63.9,60.6,89,30.05,10.0,South,3.5,-,N/A,,Clear,190,2013-07-26 04:55:00